createdAt,value
2023-05-19T00:01:53.388Z,11.15
2023-05-19T00:04:25.337Z,11.00
2023-05-19T00:06:56.884Z,10.99
2023-05-19T00:09:28.204Z,10.89
2023-05-19T00:11:57.656Z,10.92
2023-05-19T00:14:27.145Z,10.87
2023-05-19T00:16:57.984Z,10.81
2023-05-19T00:19:32.489Z,10.92
2023-05-19T00:22:04.320Z,11.02
2023-05-19T00:24:35.487Z,10.97
2023-05-19T00:27:04.803Z,10.93
2023-05-19T00:29:40.829Z,10.89
2023-05-19T00:32:09.037Z,10.87
2023-05-19T00:34:47.009Z,10.85
2023-05-19T00:37:15.815Z,10.64
2023-05-19T00:39:43.698Z,10.70
2023-05-19T00:42:12.788Z,10.57
2023-05-19T00:44:43.478Z,10.57
2023-05-19T00:47:13.484Z,10.62
2023-05-19T00:49:44.856Z,10.65
2023-05-19T00:52:15.275Z,10.70
2023-05-19T00:54:46.780Z,10.62
2023-05-19T00:57:17.757Z,10.62
2023-05-19T00:59:53.650Z,10.49
2023-05-19T01:02:24.301Z,10.50
2023-05-19T01:05:09.583Z,10.44
2023-05-19T01:07:42.758Z,10.54
2023-05-19T01:10:17.770Z,10.52
2023-05-19T01:12:51.994Z,10.49
2023-05-19T01:15:21.111Z,10.48
2023-05-19T01:17:56.896Z,10.44
2023-05-19T01:20:33.208Z,10.42
2023-05-19T01:23:32.733Z,10.50
2023-05-19T01:26:23.234Z,10.44
2023-05-19T01:29:29.379Z,10.53
2023-05-19T01:32:04.973Z,10.46
2023-05-19T01:34:36.950Z,10.50
2023-05-19T01:37:08.835Z,10.48
2023-05-19T01:39:40.160Z,10.55
2023-05-19T01:42:09.280Z,10.43
2023-05-19T01:44:38.186Z,10.45
2023-05-19T01:47:11.877Z,10.52
2023-05-19T01:49:42.859Z,10.45
2023-05-19T01:52:14.163Z,10.46
2023-05-19T01:54:43.891Z,10.44
2023-05-19T01:57:22.430Z,10.37
2023-05-19T02:00:06.453Z,10.39
2023-05-19T02:02:48.063Z,10.46
2023-05-19T02:05:29.955Z,10.33
2023-05-19T02:08:07.196Z,10.41
2023-05-19T02:10:40.090Z,10.27
2023-05-19T02:13:12.484Z,10.27
2023-05-19T02:15:43.892Z,10.36
2023-05-19T02:18:19.050Z,10.27
2023-05-19T02:20:48.576Z,10.10
2023-05-19T02:23:21.378Z,10.17
2023-05-19T02:25:49.881Z,10.18
2023-05-19T02:28:20.106Z,10.30
2023-05-19T02:30:51.386Z,10.22
2023-05-19T02:33:27.510Z,10.28
2023-05-19T02:35:56.203Z,10.25
2023-05-19T02:38:28.749Z,10.20
2023-05-19T02:40:57.571Z,10.21
2023-05-19T02:43:36.117Z,10.22
2023-05-19T02:46:05.404Z,10.26
2023-05-19T02:48:36.976Z,10.11
2023-05-19T02:51:09.470Z,10.12
2023-05-19T02:53:38.213Z,9.99
2023-05-19T02:56:08.946Z,9.97
2023-05-19T02:58:37.069Z,9.94
2023-05-19T03:01:13.600Z,10.07
2023-05-19T03:03:43.862Z,9.98
2023-05-19T03:06:13.226Z,10.09
2023-05-19T03:08:45.045Z,10.08
2023-05-19T03:11:13.938Z,10.18
2023-05-19T03:13:47.572Z,10.03
2023-05-19T03:16:20.007Z,10.09
2023-05-19T03:18:55.773Z,10.06
2023-05-19T03:21:51.207Z,10.08
2023-05-19T03:24:20.828Z,9.97
2023-05-19T03:26:49.165Z,9.99
2023-05-19T03:29:18.148Z,9.98
2023-05-19T03:31:49.412Z,9.92
2023-05-19T03:34:23.174Z,9.93
2023-05-19T03:36:51.451Z,9.95
2023-05-19T03:39:34.920Z,9.94
2023-05-19T03:42:05.170Z,9.96
2023-05-19T03:44:33.985Z,9.84
2023-05-19T03:47:05.090Z,9.80
2023-05-19T03:49:34.912Z,9.90
2023-05-19T03:52:07.297Z,9.89
2023-05-19T03:54:35.756Z,9.71
2023-05-19T03:57:05.954Z,9.91
2023-05-19T03:59:37.257Z,9.80
2023-05-19T04:02:08.462Z,9.91
2023-05-19T04:04:41.812Z,9.88
2023-05-19T04:07:10.789Z,9.99
2023-05-19T04:09:39.027Z,9.85
2023-05-19T04:12:07.779Z,9.93
2023-05-19T04:14:40.061Z,9.95
2023-05-19T04:17:13.000Z,9.89
2023-05-19T04:19:43.401Z,9.91
2023-05-19T04:22:13.832Z,10.06
2023-05-19T04:24:42.426Z,10.02
2023-05-19T04:27:22.980Z,10.04
2023-05-19T04:29:53.927Z,9.85
2023-05-19T04:32:24.178Z,9.95
2023-05-19T04:34:54.843Z,10.02
2023-05-19T04:37:24.297Z,9.97
2023-05-19T04:39:52.654Z,10.00
2023-05-19T04:42:22.436Z,10.13
2023-05-19T04:44:52.829Z,10.20
2023-05-19T04:47:23.558Z,10.17
2023-05-19T04:49:55.792Z,10.34
2023-05-19T04:52:27.805Z,10.23
2023-05-19T04:54:56.976Z,10.51
2023-05-19T04:57:30.513Z,10.54
2023-05-19T05:00:00.353Z,10.49
2023-05-19T05:02:28.810Z,10.47
2023-05-19T05:05:01.670Z,10.31
2023-05-19T05:07:31.652Z,10.57
2023-05-19T05:10:00.296Z,10.42
2023-05-19T05:12:29.112Z,10.48
2023-05-19T05:14:59.860Z,10.59
2023-05-19T05:17:29.540Z,10.58
2023-05-19T05:20:00.709Z,10.77
2023-05-19T05:22:34.239Z,10.83
2023-05-19T05:25:07.347Z,10.99
2023-05-19T05:27:38.515Z,10.95
2023-05-19T05:30:13.105Z,11.18
2023-05-19T05:32:41.378Z,11.04
2023-05-19T05:35:13.845Z,11.43
2023-05-19T05:37:43.866Z,11.31
2023-05-19T05:40:13.603Z,11.52
2023-05-19T05:42:43.131Z,11.60
2023-05-19T05:45:20.686Z,11.56
2023-05-19T05:47:49.656Z,11.66
2023-05-19T05:50:24.023Z,11.70
2023-05-19T05:52:55.291Z,11.96
2023-05-19T05:55:26.967Z,11.92
2023-05-19T05:57:56.913Z,12.00
2023-05-19T06:00:33.022Z,11.79
2023-05-19T06:03:04.739Z,12.12
2023-05-19T06:05:42.442Z,12.26
2023-05-19T06:08:12.055Z,12.34
2023-05-19T06:10:41.742Z,12.66
2023-05-19T06:13:10.037Z,12.64
2023-05-19T06:15:37.896Z,12.58
2023-05-19T06:18:10.245Z,12.59
2023-05-19T06:20:45.256Z,12.72
2023-05-19T06:23:14.283Z,12.78
2023-05-19T06:25:43.111Z,12.73
2023-05-19T06:28:13.619Z,12.82
2023-05-19T06:30:41.511Z,12.98
2023-05-19T06:33:11.706Z,13.21
2023-05-19T06:35:45.195Z,13.12
2023-05-19T06:38:18.198Z,13.38
2023-05-19T06:40:49.548Z,13.27
2023-05-19T06:43:17.892Z,13.48
2023-05-19T06:45:48.881Z,13.43
2023-05-19T06:48:18.645Z,13.56
2023-05-19T06:50:49.462Z,13.47
2023-05-19T06:53:25.619Z,13.45
2023-05-19T06:55:59.880Z,13.79
2023-05-19T06:58:29.889Z,14.01
2023-05-19T07:00:59.832Z,14.22
2023-05-19T07:03:34.844Z,14.26
2023-05-19T07:06:09.735Z,14.02
2023-05-19T07:08:38.380Z,14.51
2023-05-19T07:11:07.199Z,14.49
2023-05-19T07:13:44.137Z,14.55
2023-05-19T07:16:12.707Z,14.70
2023-05-19T07:18:46.222Z,14.66
2023-05-19T07:21:16.930Z,14.71
2023-05-19T07:23:45.974Z,14.63
2023-05-19T07:29:02.219Z,15.43
2023-05-19T07:31:32.910Z,15.14
2023-05-19T07:34:04.968Z,15.26
2023-05-19T07:39:27.502Z,15.14
2023-05-19T07:42:00.814Z,15.58
2023-05-19T07:44:38.790Z,15.79
2023-05-19T07:47:09.229Z,15.69
2023-05-19T07:49:44.695Z,15.70
2023-05-19T07:52:22.218Z,15.98
2023-05-19T07:54:50.513Z,16.35
2023-05-19T07:57:21.080Z,16.21
2023-05-19T07:59:52.452Z,16.25
2023-05-19T08:02:25.251Z,16.49
2023-05-19T08:04:54.716Z,16.65
2023-05-19T08:07:25.541Z,16.89
2023-05-19T08:09:57.044Z,16.75
2023-05-19T08:12:26.235Z,16.70
2023-05-19T08:15:00.992Z,16.83
2023-05-19T08:17:31.936Z,16.71
2023-05-19T08:20:00.868Z,16.95
2023-05-19T08:22:32.087Z,16.72
2023-05-19T08:25:12.929Z,16.66
2023-05-19T08:27:49.071Z,16.78
2023-05-19T08:30:20.041Z,17.05
2023-05-19T08:32:51.187Z,17.18
2023-05-19T08:35:21.834Z,17.04
2023-05-19T08:37:56.721Z,17.36
2023-05-19T08:40:26.452Z,17.62
2023-05-19T08:42:55.538Z,17.78
2023-05-19T08:45:33.904Z,17.81
2023-05-19T08:48:03.638Z,17.51
2023-05-19T08:50:38.634Z,17.71
2023-05-19T08:53:31.348Z,17.70
2023-05-19T08:56:10.046Z,18.29
2023-05-19T08:58:41.343Z,18.22
2023-05-19T09:01:14.638Z,18.34
2023-05-19T09:03:44.490Z,18.09
2023-05-19T09:06:13.858Z,18.12
2023-05-19T09:08:47.230Z,18.27
2023-05-19T09:11:15.534Z,18.34
2023-05-19T09:13:49.233Z,18.41
2023-05-19T09:16:18.556Z,18.22
2023-05-19T09:18:56.021Z,18.02
2023-05-19T09:21:32.998Z,18.32
2023-05-19T09:24:08.088Z,18.12
2023-05-19T09:26:40.491Z,18.08
2023-05-19T09:29:15.068Z,18.35
2023-05-19T09:31:51.498Z,18.37
2023-05-19T09:34:20.580Z,18.42
2023-05-19T09:36:50.765Z,18.63
2023-05-19T09:39:22.133Z,18.67
2023-05-19T09:41:53.684Z,18.74
2023-05-19T09:44:29.224Z,18.78
2023-05-19T09:47:03.411Z,19.16
2023-05-19T09:49:36.188Z,19.51
2023-05-19T09:52:11.214Z,19.49
2023-05-19T09:54:45.861Z,19.66
2023-05-19T09:57:14.331Z,20.22
2023-05-19T09:59:49.362Z,20.79
2023-05-19T10:02:24.916Z,20.47
2023-05-19T10:04:56.157Z,20.49
2023-05-19T10:07:27.633Z,21.00
2023-05-19T10:09:59.182Z,20.67
2023-05-19T10:12:30.156Z,20.50
2023-05-19T10:15:00.425Z,20.37
2023-05-19T10:17:30.524Z,20.03
2023-05-19T10:20:09.101Z,21.12
2023-05-19T10:22:45.748Z,21.54
2023-05-19T10:25:18.764Z,20.80
2023-05-19T10:27:53.787Z,21.00
2023-05-19T10:30:30.173Z,21.35
2023-05-19T10:33:01.409Z,21.70
2023-05-19T10:35:57.476Z,21.60
2023-05-19T10:38:37.452Z,21.31
2023-05-19T10:41:14.721Z,20.97
2023-05-19T10:43:56.461Z,20.95
2023-05-19T10:46:28.403Z,20.69
2023-05-19T10:49:02.642Z,20.08
2023-05-19T10:51:35.780Z,20.14
2023-05-19T10:54:19.942Z,20.14
2023-05-19T10:57:03.373Z,19.75
2023-05-19T10:59:35.247Z,19.75
2023-05-19T11:02:07.077Z,19.71
2023-05-19T11:04:53.575Z,19.95
2023-05-19T11:07:24.662Z,19.79
2023-05-19T11:09:59.577Z,20.10
2023-05-19T11:15:27.436Z,20.32
2023-05-19T11:17:56.201Z,20.81
2023-05-19T11:20:27.810Z,21.10
2023-05-19T11:23:11.033Z,21.16
2023-05-19T11:25:43.643Z,20.63
2023-05-19T11:28:20.398Z,20.60
2023-05-19T11:30:51.794Z,20.97
2023-05-19T11:33:27.273Z,21.15
2023-05-19T11:35:58.115Z,20.84
2023-05-19T11:38:30.389Z,20.83
2023-05-19T11:41:00.106Z,20.96
2023-05-19T11:43:32.368Z,21.14
2023-05-19T11:46:02.522Z,21.28
2023-05-19T11:48:34.540Z,21.31
2023-05-19T11:51:03.226Z,21.21
2023-05-19T11:53:36.937Z,21.38
2023-05-19T12:09:55.070Z,22.00
2023-05-19T12:18:41.602Z,22.67
2023-05-19T12:24:31.116Z,21.79
2023-05-19T12:27:17.797Z,21.73
2023-05-19T12:29:54.371Z,22.12
2023-05-19T12:32:29.422Z,21.95
2023-05-19T12:34:59.593Z,21.97
2023-05-19T12:37:39.140Z,21.98
2023-05-19T12:43:50.423Z,22.04
2023-05-19T12:46:36.239Z,22.01
2023-05-19T12:49:11.608Z,22.33
2023-05-19T12:51:42.972Z,22.31
2023-05-19T12:54:29.244Z,22.36
2023-05-19T12:57:05.014Z,22.74
2023-05-19T12:59:38.665Z,22.21
2023-05-19T13:02:40.104Z,22.43
2023-05-19T13:05:15.810Z,22.77
2023-05-19T13:08:03.330Z,22.24
2023-05-19T13:10:35.865Z,22.49
2023-05-19T13:13:08.288Z,22.34
2023-05-19T13:15:44.718Z,22.48
2023-05-19T13:18:36.488Z,23.36
2023-05-19T13:21:13.666Z,23.73
2023-05-19T13:23:44.835Z,23.41
2023-05-19T13:29:09.791Z,24.16
2023-05-19T13:31:44.204Z,23.92
2023-05-19T13:34:20.012Z,23.70
2023-05-19T13:36:56.463Z,23.89
2023-05-19T13:39:27.186Z,24.72
2023-05-19T13:42:05.358Z,25.70
2023-05-19T13:44:46.651Z,26.64
2023-05-19T13:47:23.829Z,27.82
2023-05-19T13:50:01.698Z,26.95
2023-05-19T13:58:25.807Z,25.22
2023-05-19T14:01:04.814Z,24.42
2023-05-19T14:03:42.901Z,24.24
2023-05-19T14:06:16.339Z,25.21
2023-05-19T14:08:47.976Z,25.66
2023-05-19T14:11:22.451Z,24.77
2023-05-19T14:13:55.710Z,24.59
2023-05-19T14:16:38.218Z,25.31
2023-05-19T14:19:08.840Z,25.84
2023-05-19T14:21:58.345Z,25.24
2023-05-19T14:24:27.372Z,24.41
2023-05-19T14:27:04.859Z,25.59
2023-05-19T14:29:33.967Z,24.95
2023-05-19T14:32:06.069Z,23.51
2023-05-19T14:34:53.077Z,23.58
2023-05-19T14:37:38.849Z,23.78
2023-05-19T14:40:12.368Z,24.01
2023-05-19T14:42:43.043Z,24.24
2023-05-19T14:45:12.873Z,23.98
2023-05-19T14:47:42.020Z,22.96
2023-05-19T14:50:15.035Z,22.81
2023-05-19T14:52:59.315Z,23.10
2023-05-19T14:55:27.991Z,23.71
2023-05-19T14:57:56.998Z,23.57
2023-05-19T15:00:33.592Z,24.52
2023-05-19T15:03:05.870Z,24.23
2023-05-19T15:05:35.367Z,23.93
2023-05-19T15:08:08.486Z,24.62
2023-05-19T15:10:39.234Z,23.92
2023-05-19T15:13:13.311Z,23.94
2023-05-19T15:15:43.630Z,23.54
2023-05-19T15:18:13.593Z,23.26
2023-05-19T15:20:45.254Z,22.67
2023-05-19T15:23:17.726Z,22.25
2023-05-19T15:25:48.432Z,22.32
2023-05-19T15:28:19.363Z,22.71
2023-05-19T15:30:50.634Z,21.99
2023-05-19T15:33:23.144Z,22.19
2023-05-19T15:35:52.500Z,21.96
2023-05-19T15:38:22.321Z,21.73
2023-05-19T15:40:51.885Z,22.14
2023-05-19T15:43:22.698Z,23.24
2023-05-19T15:45:56.556Z,22.77
2023-05-19T15:48:33.640Z,23.49
2023-05-19T15:51:17.629Z,24.52
2023-05-19T15:54:04.569Z,24.53
2023-05-19T15:56:39.294Z,25.10
2023-05-19T15:59:08.158Z,24.95
2023-05-19T16:01:41.023Z,24.22
2023-05-19T16:04:14.155Z,23.60
2023-05-19T16:06:42.331Z,24.07
2023-05-19T16:09:17.951Z,23.79
2023-05-19T16:11:53.499Z,23.09
2023-05-19T16:14:47.239Z,22.60
2023-05-19T16:17:19.842Z,22.46
2023-05-19T16:19:51.203Z,22.53
2023-05-19T16:22:27.077Z,22.29
2023-05-19T16:25:08.354Z,22.13
2023-05-19T16:27:40.706Z,22.31
2023-05-19T16:30:20.552Z,22.32
2023-05-19T16:32:51.326Z,22.35
2023-05-19T16:35:20.973Z,22.40
2023-05-19T16:37:55.693Z,22.20
2023-05-19T16:40:30.735Z,22.17
2023-05-19T16:42:59.678Z,22.07
2023-05-19T16:45:33.195Z,21.75
2023-05-19T16:48:03.965Z,22.34
2023-05-19T16:50:42.349Z,22.05
2023-05-19T16:53:16.295Z,21.78
2023-05-19T16:55:48.182Z,21.57
2023-05-19T16:58:17.154Z,21.99
2023-05-19T17:00:47.736Z,21.75
2023-05-19T17:03:19.548Z,21.70
2023-05-19T17:06:01.628Z,21.72
2023-05-19T17:08:33.225Z,21.90
2023-05-19T17:11:11.557Z,21.58
2023-05-19T17:13:56.709Z,21.58
2023-05-19T17:16:33.757Z,21.28
2023-05-19T17:19:04.449Z,21.17
2023-05-19T17:24:23.958Z,21.32
2023-05-19T17:27:01.037Z,21.39
2023-05-19T17:29:34.511Z,21.32
2023-05-19T17:32:09.205Z,20.85
2023-05-19T17:34:40.834Z,21.19
2023-05-19T17:37:09.485Z,21.11
2023-05-19T17:39:46.765Z,21.49
2023-05-19T17:42:20.597Z,20.77
2023-05-19T17:44:48.839Z,21.19
2023-05-19T17:47:22.681Z,21.31
2023-05-19T17:49:58.748Z,21.50
2023-05-19T17:52:32.823Z,21.32
2023-05-19T17:55:06.519Z,20.72
2023-05-19T17:57:39.556Z,20.86
2023-05-19T18:00:12.547Z,20.69
2023-05-19T18:02:49.252Z,20.64
2023-05-19T18:05:27.674Z,20.45
2023-05-19T18:08:00.429Z,20.50
2023-05-19T18:10:36.866Z,20.39
2023-05-19T18:13:09.910Z,21.01
2023-05-19T18:15:52.271Z,20.93
2023-05-19T18:18:25.872Z,20.50
2023-05-19T18:21:13.339Z,20.18
2023-05-19T18:23:50.252Z,20.08
2023-05-19T18:26:32.597Z,19.69
2023-05-19T18:29:05.712Z,19.63
2023-05-19T18:31:39.972Z,19.73
2023-05-19T18:34:14.029Z,19.68
2023-05-19T18:36:44.887Z,19.39
2023-05-19T18:39:13.415Z,19.18
2023-05-19T18:41:51.772Z,19.26
2023-05-19T18:44:29.864Z,19.36
2023-05-19T18:47:06.462Z,19.22
2023-05-19T18:49:39.152Z,19.23
2023-05-19T18:52:08.031Z,18.93
2023-05-19T18:55:05.019Z,18.81
2023-05-19T18:57:36.386Z,18.72
2023-05-19T19:00:33.982Z,18.16
2023-05-19T19:03:03.604Z,18.80
2023-05-19T19:05:34.930Z,18.72
2023-05-19T19:08:29.196Z,18.46
2023-05-19T19:11:02.869Z,18.50
2023-05-19T19:13:38.850Z,18.34
2023-05-19T19:16:24.252Z,18.45
2023-05-19T19:18:55.683Z,18.12
2023-05-19T19:21:25.277Z,18.09
2023-05-19T19:23:54.887Z,17.91
2023-05-19T19:26:30.087Z,18.18
2023-05-19T19:28:59.732Z,18.10
2023-05-19T19:31:31.117Z,17.97
2023-05-19T19:34:13.052Z,18.03
2023-05-19T19:36:42.357Z,17.89
2023-05-19T19:39:28.472Z,18.01
2023-05-19T19:41:57.255Z,17.87
2023-05-19T19:44:27.999Z,17.84
2023-05-19T19:47:41.294Z,17.97
2023-05-19T19:50:12.531Z,17.93
2023-05-19T19:52:47.117Z,17.72
2023-05-19T19:55:23.333Z,17.73
2023-05-19T19:58:06.568Z,17.69
2023-05-19T20:00:37.377Z,17.73
2023-05-19T20:03:28.535Z,17.71
2023-05-19T20:06:05.414Z,17.61
2023-05-19T20:08:38.041Z,17.58
2023-05-19T20:11:08.680Z,17.59
2023-05-19T20:13:38.203Z,17.44
2023-05-19T20:16:19.500Z,17.48
2023-05-19T20:19:05.966Z,17.43
2023-05-19T20:21:43.398Z,17.61
2023-05-19T20:24:19.003Z,17.57
2023-05-19T20:26:49.765Z,17.49
2023-05-19T20:29:22.706Z,17.57
2023-05-19T20:31:57.392Z,17.48
2023-05-19T20:34:34.505Z,17.27
2023-05-19T20:37:08.283Z,17.28
2023-05-19T20:39:39.568Z,17.08
2023-05-19T20:42:17.460Z,16.82
2023-05-19T20:44:45.537Z,16.82
2023-05-19T20:47:17.287Z,16.71
2023-05-19T20:50:06.073Z,16.56
2023-05-19T20:52:39.609Z,16.59
2023-05-19T20:55:13.614Z,16.65
2023-05-19T20:57:45.959Z,16.55
2023-05-19T21:00:18.755Z,16.38
2023-05-19T21:02:47.182Z,16.31
2023-05-19T21:05:18.306Z,16.37
2023-05-19T21:07:48.221Z,16.20
2023-05-19T21:10:18.050Z,16.24
2023-05-19T21:12:59.863Z,16.15
2023-05-19T21:15:28.294Z,16.12
2023-05-19T21:18:03.445Z,16.15
2023-05-19T21:20:34.492Z,15.98
2023-05-19T21:23:03.542Z,15.99
2023-05-19T21:25:33.634Z,15.83
2023-05-19T21:28:01.597Z,15.91
2023-05-19T21:30:30.296Z,15.85
2023-05-19T21:33:00.575Z,15.69
2023-05-19T21:35:33.101Z,15.76
2023-05-19T21:38:15.715Z,15.72
2023-05-19T21:40:53.539Z,15.74
2023-05-19T21:43:23.706Z,15.66
2023-05-19T21:45:53.103Z,15.63
2023-05-19T21:48:46.336Z,15.64
2023-05-19T21:51:23.579Z,15.61
2023-05-19T21:54:03.210Z,15.46
2023-05-19T21:56:38.041Z,15.50
2023-05-19T21:59:07.256Z,15.31
2023-05-19T22:01:36.643Z,15.42
2023-05-19T22:04:06.953Z,15.49
2023-05-19T22:06:38.035Z,15.39
2023-05-19T22:09:10.808Z,15.28
2023-05-19T22:11:43.569Z,15.24
2023-05-19T22:14:16.228Z,15.13
2023-05-19T22:16:47.922Z,15.26
2023-05-19T22:19:18.125Z,15.24
2023-05-19T22:21:55.901Z,15.16
2023-05-19T22:24:36.379Z,14.98
2023-05-19T22:27:05.356Z,15.04
2023-05-19T22:29:35.130Z,14.86
2023-05-19T22:32:12.245Z,14.88
2023-05-19T22:34:43.830Z,14.91
2023-05-19T22:37:13.726Z,14.89
2023-05-19T22:39:48.769Z,14.92
2023-05-19T22:42:18.928Z,14.81
2023-05-19T22:44:50.117Z,14.86
2023-05-19T22:47:24.218Z,14.71
2023-05-19T22:49:57.238Z,14.78
2023-05-19T22:52:30.396Z,14.84
2023-05-19T22:55:00.632Z,14.67
2023-05-19T22:57:30.928Z,14.71
2023-05-19T23:00:01.581Z,14.64
2023-05-19T23:02:33.564Z,14.63
2023-05-19T23:05:02.488Z,14.86
2023-05-19T23:07:30.752Z,14.85
2023-05-19T23:10:06.013Z,14.90
2023-05-19T23:12:40.851Z,14.94
2023-05-19T23:15:10.084Z,14.94
2023-05-19T23:17:40.904Z,14.83
2023-05-19T23:20:12.321Z,14.84
2023-05-19T23:22:50.467Z,14.80
2023-05-19T23:25:20.153Z,14.84
2023-05-19T23:27:53.278Z,14.94
2023-05-19T23:30:21.518Z,15.11
2023-05-19T23:32:50.833Z,14.97
2023-05-19T23:35:20.783Z,14.82
2023-05-19T23:37:55.197Z,14.87
2023-05-19T23:40:36.097Z,14.68
2023-05-19T23:43:05.749Z,14.73
2023-05-19T23:45:36.991Z,14.76
2023-05-19T23:48:07.165Z,14.71
2023-05-19T23:50:36.089Z,14.63
2023-05-19T23:53:07.311Z,14.68
2023-05-19T23:55:39.909Z,14.71
2023-05-19T23:58:09.540Z,14.62
